San Bernardino, CA

3:42 AM PDT on May 25, 2015 (GMT -0700)
March Air Reserve Base | | Change Station
CLOSE
Current Station
Airport
Location: Riverside March,
Elevation: 1535 ft
Nearby Weather Stations

Elev 1535 ft 33.90 °N, 117.25 °W | Updated 44 minutes ago

Partly Cloudy
Partly Cloudy
50 °F
Feels Like 50 °F
N
2
Wind Variable Wind from SSE

Today
High -- | Low -- °F
--% Chance of Precip.
Yesterday
High -- | Low -- °F
Precip. -- in
5:41 AM 7:51 PM
Waxing Crescent, 47% visible
Pressure 29.94 in
Visibility 7.0 miles
Clouds Few 500 ft
Few 1900 ft
Dew Point 50 °F
Humidity 100%
Rainfall 0.00 in
Snow Depth Not available.
UV 0 out of 12
Pollen 4.70 out of 12
Air Quality Not available.
Flu Activity Sporadic
METAR KRIV 250958Z 16002KT 7SM FEW005 FEW019 10/10 A2995 RMK AO2A SLP138 T00980098

More Conditions Fewer Conditions

Pressure 29.94 in
Visibility 7.0 miles
Clouds Few 500 ft
Few 1900 ft
Dew Point 50 °F
Humidity 100%
Rainfall 0.00 in
Snow Depth Not available.
UV 0 out of 12
Pollen 4.70 out of 12
Air Quality Not available.
Flu Activity Sporadic
METAR KRIV 250958Z 16002KT 7SM FEW005 FEW019 10/10 A2995 RMK AO2A SLP138 T00980098

More Conditions Fewer Conditions

10-Day Weather Forecast

Almanac

Astronomy

May. 25, 2015 Rise Set
Actual Time
Civil Twilight
Nautical Twilight
Astronomical Twilight
Moon
Length of Visible Light
Length of Day
Tomorrow will be .
, % of the Moon is Illuminated

Today's Extremes

State Highs State Lows

Community

WunderPhotos

Upload Photos

1,823,975 photos uploaded!

WunderBlogs® & News

Nearby

Air Quality

  Air Quality AQ Index Pollutant
Not available.

Snow Depth

Station Depth Elevation

Earthquake Activity

City Distance Mag. Time & Date
Minimum magnitude displayed is 2.5.

Coastal Water Temperatures

Place Temperature

Stations

Nearby Weather Stations

Station Location Temp. Windchill Dew Point Humidity Wind Precip. Elev Updated Type